Flight Track Log - Related Links

Times and Time Zones

All times are in EDT time to prevent confusion due to time zone crossing. See the SVA2443 flight status page for this flight to view local times or setup timezone preferences in your user account.


Time Position Orientation Groundspeed Altitude Reporting Facility
EDT Latitude Longitude Course Direction KTS MPH feet Rate Location/Type
Wed 10:48:08 PM 36.9850 35.2950 49° Northeast 6 7  Level FlightAware ADS-B
Wed 10:48:43 PM 36.9860 35.2950 360° North 7 8 81 Level FlightAware ADS-B
Wed 10:49:24 PM 36.9870 35.2950 360° North 5 6 92 Level FlightAware ADS-B
Wed 10:49:53 PM 36.9880 35.2940 321° Northwest 1 1 109 Level FlightAware ADS-B
Wed 10:51:24 PM 36.9890 35.2940 360° North 8 9 125 Level FlightAware ADS-B
Wed 10:52:19 PM 36.9890 35.2920 270° West 6 7 238 Level FlightAware ADS-B
Wed 10:52:49 PM 36.9840 35.2840 232° Southwest 120 138 522 Level FlightAware ADS-B
Wed 10:53:05 PM 36.9770 35.2720 234° Southwest 167 192 400 2,049 Climbing FlightAware ADS-B
Wed 10:53:30 PM 36.9660 35.2530 234° Southwest 158 182 1,400 2,333 Climbing FlightAware ADS-B
Wed 10:53:59 PM 36.9540 35.2300 237° Southwest 161 185 2,500 2,000 Climbing FlightAware ADS-B
Wed 10:54:30 PM 36.9400 35.2050 235° Southwest 170 196 3,400 1,610 Climbing FlightAware ADS-B
Wed 10:54:40 PM 36.9380 35.1960 254° West 182 209 3,600 1,200 Climbing FlightAware ADS-B
Wed 10:54:55 PM 36.9360 35.1790 262° West 202 232 3,900 900 Climbing FlightAware ADS-B
Wed 10:55:20 PM 36.9350 35.1470 268° West 247 284 4,200 1,200 Climbing FlightAware ADS-B
Wed 10:55:45 PM 36.9340 35.1080 268° West 277 319 4,900 2,727 Climbing FlightAware ADS-B
Wed 10:56:15 PM 36.9320 35.0580 267° West 283 326 6,700 3,344 Climbing FlightAware ADS-B
Wed 10:56:46 PM 36.9310 35.0150 268° West 285 328 8,300 3,380 Climbing FlightAware ADS-B
Wed 10:57:26 PM 36.9290 34.9410 268° West 295 339 10,700 2,651 Climbing FlightAware ADS-B
Wed 10:58:12 PM 36.9270 34.8570 268° West 344 396 12,100 2,188 Climbing FlightAware ADS-B
Wed 10:58:51 PM 36.9250 34.7760 268° West 360 414 13,800 2,804 Climbing FlightAware ADS-B
Wed 10:59:44 PM 36.9220 34.6710 268° West 373 429 16,400 1,733 Climbing FlightAware ADS-B
Wed 11:00:21 PM 36.9210 34.6030 269° West 373 429 16,400  Level FlightAware ADS-B
Wed 11:01:10 PM 36.9200 34.5130 269° West 373 429 16,400  Level FlightAware ADS-B
Wed 11:01:36 PM 36.9190 34.4650 269° West 373 429 16,400  Level FlightAware ADS-B
Wed 11:02:23 PM 36.9180 34.3790 269° West 373 429 16,400  Level FlightAware ADS-B
Wed 11:02:59 PM 36.9170 34.3130 269° West 373 429 16,400 2,040 Level FlightAware ADS-B
Wed 11:05:00 PM 36.7336 34.3819 163° South  Level Estimated
Wed 11:06:00 PM 36.6426 34.4159 163° South  Level Estimated
Wed 11:07:00 PM 36.5516 34.4498 163° South  Level Estimated
Wed 11:08:00 PM 36.4606 34.4837 163° South  Level Estimated
Wed 11:09:00 PM 36.3696 34.5174 163° South  Level Estimated
Wed 11:10:00 PM 36.2785 34.5512 163° South  Level Estimated
Wed 11:11:00 PM 36.1875 34.5848 163° South  Level Estimated
Wed 11:11:27 PM 36.5380 33.5440 163° South 522 601 34,900  Level FlightAware ADS-B
Wed 11:12:01 PM 36.4810 33.5940 145° Southeast 522 601 34,900  Level FlightAware ADS-B
Wed 11:12:49 PM 36.4000 33.6640 145° Southeast 522 601 34,900  Level FlightAware ADS-B
Wed 11:13:41 PM 36.2030 33.8010 151° Southeast 517 595 34,900  Level FlightAware ADS-B
Wed 11:14:27 PM 36.1240 33.8620 148° Southeast 517 595 34,900  Level FlightAware ADS-B
Wed 11:15:04 PM 36.0600 33.9110 148° Southeast 517 595 34,900  Level FlightAware ADS-B
Wed 11:15:50 PM 35.9810 33.9730 148° Southeast 517 595 34,900  Level FlightAware ADS-B
Wed 11:16:26 PM 35.9190 34.0210 148° Southeast 517 595 34,900  Level FlightAware ADS-B
Wed 11:17:12 PM 35.8390 34.0820 148° Southeast 517 595 34,900  Level FlightAware ADS-B
Wed 11:17:50 PM 35.7740 34.1320 148° Southeast 517 595 34,900  Level FlightAware ADS-B
Wed 11:18:38 PM 35.6910 34.1960 148° Southeast 517 595 34,900  Level FlightAware ADS-B
Wed 11:19:20 PM 35.4790 34.2010 179° South 480 552 34,900  Level FlightAware ADS-B
Wed 11:20:00 PM 35.3910 34.1940 184° South 481 554 34,900  Level FlightAware ADS-B
Wed 11:20:40 PM 35.3060 34.1870 184° South 482 555 34,900  Level FlightAware ADS-B
Wed 11:21:20 PM 35.2140 34.1810 183° South 482 555 34,900  Level FlightAware ADS-B
Wed 11:22:07 PM 35.1200 34.1410 199° South 456 525 34,900  Level FlightAware ADS-B
Wed 11:22:46 PM 35.0530 34.0830 215° Southwest 453 521 34,900  Level FlightAware ADS-B
Wed 11:23:31 PM 34.9770 34.0140 217° Southwest 453 521 34,900  Level FlightAware ADS-B
Wed 11:24:11 PM 34.9100 33.9560 215° Southwest 454 522 34,900  Level FlightAware ADS-B
Wed 11:24:51 PM 34.8400 33.8960 215° Southwest 456 525 34,900  Level FlightAware ADS-B
Wed 11:25:29 PM 34.7780 33.8440 215° Southwest 456 525 34,900  Level FlightAware ADS-B
Wed 11:26:12 PM 34.7000 33.7780 215° Southwest 457 526 34,900  Level FlightAware ADS-B
Wed 11:26:52 PM 34.6300 33.7200 214° Southwest 458 527 34,900  Level FlightAware ADS-B
Wed 11:27:28 PM 34.5700 33.6690 215° Southwest 458 527 34,900  Level FlightAware ADS-B
Wed 11:28:12 PM 34.4920 33.6030 215° Southwest 458 527 34,900  Level FlightAware ADS-B
Wed 11:28:52 PM 34.4220 33.5450 214° Southwest 458 527 34,900  Level FlightAware ADS-B
Wed 11:29:33 PM 34.3540 33.4880 215° Southwest 459 528 34,900  Level FlightAware ADS-B
Wed 11:30:16 PM 34.2750 33.4220 215° Southwest 458 527 34,900  Level FlightAware ADS-B
Wed 11:31:02 PM 34.1970 33.3560 215° Southwest 459 528 34,900  Level FlightAware ADS-B
Wed 11:31:40 PM 34.1300 33.3010 214° Southwest 453 521 34,900  Level FlightAware ADS-B
Wed 11:32:24 PM 34.0530 33.2370 215° Southwest 453 521 34,900  Level FlightAware ADS-B
Wed 11:33:05 PM 33.9810 33.1770 215° Southwest 453 521 34,900  Level FlightAware ADS-B
Wed 11:33:50 PM 33.9050 33.1140 215° Southwest 455 524 34,900  Level FlightAware ADS-B
Wed 11:34:30 PM 33.8320 33.0550 214° Southwest 455 524 34,900  Level FlightAware ADS-B
Wed 11:35:10 PM 33.7610 32.9960 215° Southwest 455 524 34,900  Level FlightAware ADS-B
Wed 11:35:55 PM 33.6810 32.9300 214° Southwest 456 525 34,900  Level FlightAware ADS-B
Wed 11:36:26 PM 33.6280 32.8870 214° Southwest 464 534 34,900  Level FlightAware ADS-B
Wed 11:37:04 PM 33.5680 32.8380 214° Southwest 464 534 34,900  Level FlightAware ADS-B
Wed 11:37:52 PM 33.4750 32.7620 214° Southwest 464 534 34,900  Level FlightAware ADS-B
Wed 11:38:34 PM 33.4030 32.7030 214° Southwest 464 534 34,900  Level FlightAware ADS-B
Wed 11:39:13 PM 33.3310 32.6450 214° Southwest 466 536 34,900  Level FlightAware ADS-B
Wed 11:40:00 PM 33.2620 32.5880 215° Southwest 465 535 34,900  Level FlightAware ADS-B
Wed 11:40:40 PM 33.1770 32.5200 214° Southwest 467 537 34,900  Level FlightAware ADS-B
Wed 11:41:18 PM 33.1170 32.4710 214° Southwest 467 537 34,900  Level FlightAware ADS-B
Wed 11:41:56 PM 33.0430 32.4120 214° Southwest 466 536 34,900  Level FlightAware ADS-B
Wed 11:42:33 PM 32.9830 32.3630 214° Southwest 467 537 34,900  Level FlightAware ADS-B
Wed 11:43:35 PM 32.8880 32.2870 214° Southwest 467 537 34,900  Level FlightAware ADS-B
Wed 11:44:14 PM 32.7940 32.2110 214° Southwest 469 540 34,900  Level FlightAware ADS-B
Wed 11:44:54 PM 32.7200 32.1530 213° Southwest 470 541 34,900  Level FlightAware ADS-B
Wed 11:45:40 PM 32.6430 32.0860 216° Southwest 462 532 34,900  Level FlightAware ADS-B
Wed 11:46:37 PM 32.5730 31.9830 231° Southwest 465 535 34,900  Level FlightAware ADS-B
Wed 11:47:41 PM 32.4950 31.8470 236° Southwest 461 531 34,900  Level FlightAware ADS-B
Wed 11:48:17 PM 32.4590 31.7820 237° Southwest 461 531 34,900  Level FlightAware ADS-B
Wed 11:48:53 PM 32.4220 31.7180 236° Southwest 461 531 34,900  Level FlightAware ADS-B
Wed 11:49:42 PM 32.3730 31.6310 236° Southwest 461 531 34,900  Level FlightAware ADS-B
Wed 11:50:18 PM 32.3360 31.5670 236° Southwest 461 531 34,900  Level FlightAware ADS-B
Wed 11:51:06 PM 32.2880 31.4820 236° Southwest 461 531 34,900  Level FlightAware ADS-B
Wed 11:51:43 PM 32.1950 31.3400 232° Southwest 34,900  Level FlightAware ADS-B
Wed 11:54:00 PM 32.0067 31.4977 145° Southeast  Level Estimated
Wed 11:55:00 PM 31.9242 31.5665 145° Southeast  Level Estimated
Wed 11:56:00 PM 31.8416 31.6353 145° Southeast  Level Estimated
Wed 11:57:00 PM 31.7590 31.7038 145° Southeast  Level Estimated
Wed 11:58:00 PM 31.6763 31.7723 145° Southeast  Level Estimated
Wed 11:59:00 PM 31.5937 31.8407 145° Southeast  Level Estimated
Thu 12:00:00 AM 31.5109 31.9089 145° Southeast  Level Estimated
Thu 12:01:00 AM 31.4282 31.9771 145° Southeast  Level Estimated
Thu 12:02:00 AM 31.3454 32.0451 145° Southeast  Level Estimated
Thu 12:03:00 AM 31.2626 32.1129 145° Southeast  Level Estimated
Thu 12:04:00 AM 31.1797 32.1807 145° Southeast  Level Estimated
Thu 12:05:00 AM 31.0968 32.2483 145° Southeast  Level Estimated
Thu 12:06:00 AM 31.0139 32.3158 145° Southeast  Level Estimated
Thu 12:07:00 AM 30.9309 32.3833 145° Southeast  Level Estimated
Thu 12:08:00 AM 30.8479 32.4506 145° Southeast  Level Estimated
Thu 12:09:00 AM 30.7649 32.5177 145° Southeast  Level Estimated
Thu 12:10:00 AM 30.6818 32.5848 145° Southeast  Level Estimated
Thu 12:11:00 AM 30.5987 32.6517 145° Southeast  Level Estimated
Thu 12:12:00 AM 30.5156 32.7186 145° Southeast  Level Estimated
Thu 12:13:00 AM 30.4324 32.7853 145° Southeast  Level Estimated
Thu 12:14:00 AM 30.3492 32.8519 145° Southeast  Level Estimated
Thu 12:15:00 AM 30.2660 32.9183 145° Southeast  Level Estimated
Thu 12:16:00 AM 30.1827 32.9847 145° Southeast  Level Estimated
Thu 12:17:00 AM 30.0994 33.0510 145° Southeast  Level Estimated
Thu 12:18:00 AM 30.0161 33.1171 145° Southeast  Level Estimated
Thu 12:19:00 AM 29.9327 33.1832 146° Southeast  Level Estimated
Thu 12:20:00 AM 29.8493 33.2491 146° Southeast  Level Estimated
Thu 12:21:00 AM 29.7658 33.3149 146° Southeast  Level Estimated
Thu 12:22:00 AM 29.6824 33.3806 146° Southeast  Level Estimated
Thu 12:23:00 AM 29.5989 33.4462 146° Southeast  Level Estimated
Thu 12:24:00 AM 29.5153 33.5117 146° Southeast  Level Estimated
Thu 12:25:00 AM 29.4318 33.5771 146° Southeast  Level Estimated
Thu 12:26:00 AM 29.3482 33.6424 146° Southeast  Level Estimated
Thu 12:27:00 AM 29.2645 33.7075 146° Southeast  Level Estimated
Thu 12:28:00 AM 29.1809 33.7726 146° Southeast  Level Estimated
Thu 12:29:00 AM 29.0972 33.8375 146° Southeast  Level Estimated
Thu 12:30:00 AM 29.0135 33.9024 146° Southeast  Level Estimated
Thu 12:31:00 AM 28.9297 33.9671 146° Southeast  Level Estimated
Thu 12:32:00 AM 28.8459 34.0318 146° Southeast  Level Estimated
Thu 12:33:00 AM 28.7621 34.0963 146° Southeast  Level Estimated
Thu 12:34:00 AM 28.6782 34.1607 146° Southeast  Level Estimated
Thu 12:35:00 AM 28.5944 34.2251 146° Southeast  Level Estimated
Thu 12:36:00 AM 28.5105 34.2893 146° Southeast  Level Estimated
Thu 12:37:00 AM 28.4265 34.3534 146° Southeast  Level Estimated
Thu 12:38:00 AM 28.3425 34.4174 146° Southeast  Level Estimated
Thu 12:39:00 AM 28.2585 34.4814 146° Southeast  Level Estimated
Thu 12:40:00 AM 28.1745 34.5452 146° Southeast  Level Estimated
Thu 12:41:00 AM 28.0905 34.6089 146° Southeast  Level Estimated
Thu 12:42:00 AM 28.0064 34.6725 146° Southeast  Level Estimated
Thu 12:43:00 AM 27.9222 34.7360 146° Southeast  Level Estimated
Thu 12:44:00 AM 27.8381 34.7995 146° Southeast  Level Estimated
Thu 12:45:00 AM 27.7539 34.8628 146° Southeast  Level Estimated
Thu 12:46:00 AM 27.6697 34.9260 146° Southeast  Level Estimated
Thu 12:47:00 AM 27.5855 34.9891 146° Southeast  Level Estimated
Thu 12:48:00 AM 27.5012 35.0522 146° Southeast  Level Estimated
Thu 12:49:00 AM 27.4169 35.1151 146° Southeast  Level Estimated
Thu 12:50:00 AM 27.3326 35.1780 146° Southeast  Level Estimated
Thu 12:51:00 AM 27.2483 35.2407 147° Southeast  Level Estimated
Thu 12:52:00 AM 27.1639 35.3033 147° Southeast  Level Estimated
Thu 12:53:00 AM 27.0795 35.3659 147° Southeast  Level Estimated
Thu 12:54:00 AM 26.9951 35.4283 147° Southeast  Level Estimated
Thu 12:55:00 AM 26.9106 35.4907 147° Southeast  Level Estimated
Thu 12:56:00 AM 26.8261 35.5530 147° Southeast  Level Estimated
Thu 12:57:00 AM 26.7416 35.6152 147° Southeast  Level Estimated
Thu 12:58:00 AM 26.6571 35.6773 147° Southeast  Level Estimated
Thu 12:59:00 AM 26.5725 35.7393 147° Southeast  Level Estimated
Thu 01:00:00 AM 26.4879 35.8012 147° Southeast  Level Estimated
Thu 01:01:00 AM 26.4033 35.8630 147° Southeast  Level Estimated
Thu 01:02:00 AM 26.3187 35.9247 147° Southeast  Level Estimated
Thu 01:03:00 AM 26.2340 35.9863 147° Southeast  Level Estimated
Thu 01:04:00 AM 26.1493 36.0479 147° Southeast  Level Estimated
Thu 01:05:00 AM 26.0646 36.1093 147° Southeast  Level Estimated
Thu 01:06:00 AM 25.9798 36.1707 147° Southeast  Level Estimated
Thu 01:07:00 AM 25.8951 36.2319 147° Southeast  Level Estimated
Thu 01:08:00 AM 25.8102 36.2931 147° Southeast  Level Estimated
Thu 01:09:00 AM 25.7254 36.3542 147° Southeast  Level Estimated
Thu 01:10:00 AM 25.6406 36.4152 147° Southeast  Level Estimated
Thu 01:11:00 AM 25.5557 36.4762 147° Southeast  Level Estimated
Thu 01:12:00 AM 25.4708 36.5370 147° Southeast  Level Estimated
Thu 01:13:00 AM 25.3859 36.5978 147° Southeast  Level Estimated
Thu 01:14:00 AM 25.3009 36.6585 147° Southeast  Level Estimated
Thu 01:15:00 AM 25.2159 36.7190 147° Southeast  Level Estimated
Thu 01:16:00 AM 25.1309 36.7795 147° Southeast  Level Estimated
Thu 01:17:00 AM 25.0459 36.8400 147° Southeast  Level Estimated
Thu 01:18:00 AM 24.9608 36.9003 147° Southeast  Level Estimated
Thu 01:19:00 AM 24.8758 36.9605 147° Southeast  Level Estimated
Thu 01:20:00 AM 24.7907 37.0207 147° Southeast  Level Estimated
Thu 01:21:00 AM 24.7055 37.0808 147° Southeast  Level Estimated
Thu 01:22:00 AM 24.6204 37.1408 147° Southeast  Level Estimated
Thu 01:23:00 AM 24.5352 37.2007 147° Southeast  Level Estimated
Thu 01:24:00 AM 24.4500 37.2605 147° Southeast  Level Estimated
Thu 01:25:00 AM 24.3648 37.3203 147° Southeast  Level Estimated
Thu 01:26:00 AM 24.2796 37.3800 147° Southeast  Level Estimated
Thu 01:27:00 AM 24.1943 37.4396 147° Southeast  Level Estimated
Thu 01:28:00 AM 24.1090 37.4991 148° Southeast  Level Estimated
Thu 01:29:00 AM 24.0237 37.5585 148° Southeast  Level Estimated
Thu 01:30:00 AM 23.9384 37.6179 148° Southeast  Level Estimated
Thu 01:31:00 AM 23.8530 37.6772 148° Southeast  Level Estimated
Thu 01:32:00 AM 23.7677 37.7364 148° Southeast  Level Estimated
Thu 01:33:00 AM 23.6822 37.7955 148° Southeast  Level Estimated
Thu 01:34:00 AM 23.5968 37.8545 148° Southeast  Level Estimated
Thu 01:35:00 AM 23.5114 37.9135 148° Southeast  Level Estimated
Thu 01:36:00 AM 23.4259 37.9724 148° Southeast  Level Estimated
Thu 01:37:00 AM 23.3404 38.0312 148° Southeast  Level Estimated
Thu 01:38:00 AM 23.2549 38.0900 148° Southeast  Level Estimated
Thu 01:39:00 AM 23.1694 38.1486 148° Southeast  Level Estimated
Thu 01:40:00 AM 23.0838 38.2072 148° Southeast  Level Estimated
Thu 01:41:00 AM 22.9982 38.2658 148° Southeast  Level Estimated
Thu 01:42:00 AM 22.9126 38.3242 148° Southeast  Level Estimated
Thu 01:43:00 AM 22.8270 38.3826 148° Southeast  Level Estimated
Thu 01:44:00 AM 22.7414 38.4409 148° Southeast  Level Estimated
Thu 01:45:00 AM 22.6557 38.4991 148° Southeast  Level Estimated
Thu 01:46:00 AM 22.5700 38.5572 148° Southeast  Level Estimated
Thu 01:47:00 AM 22.4843 38.6153 148° Southeast  Level Estimated
Thu 01:48:00 AM 22.3986 38.6733 148° Southeast  Level Estimated
Thu 01:49:00 AM 22.3129 38.7313 148° Southeast  Level Estimated

Login

Don't have an account? Register now (free) for customized features, flight alerts, and more!